sim
Sign-in with your pilot id or email,
or register
Callsign
Passwort

Schedule Details

Flight Number: OEO1731
Departure: Pamplona Airport (LEPP) at 07:10
Arrival: Bremen Airport (EDDW) at 09:30

Weather Information
Getting current METAR information for LEPP 112030Z 31007KT CAVOK 19/14 Q1020
Getting current METAR information for EDDW 112050Z 24001KT 9999 FEW033 12/12 Q1026 NOSIG

Schedule Frequency

Route Map